createdAt,value
2023-04-06T00:01:41.243Z,2.40
2023-04-06T00:04:10.353Z,2.30
2023-04-06T00:06:37.153Z,2.30
2023-04-06T00:09:03.978Z,2.30
2023-04-06T00:11:30.942Z,2.20
2023-04-06T00:13:57.655Z,2.20
2023-04-06T00:16:25.142Z,2.20
2023-04-06T00:18:52.157Z,2.20
2023-04-06T00:21:20.960Z,2.10
2023-04-06T00:23:47.639Z,2.10
2023-04-06T00:26:14.317Z,2.10
2023-04-06T00:28:43.431Z,2.00
2023-04-06T00:31:10.435Z,1.90
2023-04-06T00:33:37.310Z,1.90
2023-04-06T00:36:04.270Z,1.90
2023-04-06T00:38:33.103Z,1.90
2023-04-06T00:40:59.857Z,1.90
2023-04-06T00:43:26.721Z,1.90
2023-04-06T00:45:53.910Z,1.90
2023-04-06T00:48:23.053Z,1.80
2023-04-06T00:50:49.756Z,1.90
2023-04-06T00:53:16.434Z,1.80
2023-04-06T00:55:45.343Z,1.80
2023-04-06T00:58:12.097Z,1.70
2023-04-06T01:00:38.925Z,1.70
2023-04-06T01:03:07.779Z,1.70
2023-04-06T01:05:40.872Z,1.70
2023-04-06T01:08:10.437Z,1.70
2023-04-06T01:10:39.423Z,1.70
2023-04-06T01:13:09.454Z,1.80
2023-04-06T01:15:40.041Z,1.80
2023-04-06T01:18:07.951Z,1.80
2023-04-06T01:20:34.735Z,1.80
2023-04-06T01:23:01.422Z,1.80
2023-04-06T01:25:28.236Z,1.70
2023-04-06T01:27:55.087Z,1.60
2023-04-06T01:30:21.885Z,1.70
2023-04-06T01:32:48.629Z,1.60
2023-04-06T01:35:15.529Z,1.60
2023-04-06T01:37:42.247Z,1.70
2023-04-06T01:40:14.704Z,1.60
2023-04-06T01:42:41.488Z,1.60
2023-04-06T01:45:11.462Z,1.50
2023-04-06T01:47:40.733Z,1.50
2023-04-06T01:50:08.282Z,1.50
2023-04-06T01:52:35.630Z,1.50
2023-04-06T01:55:02.446Z,1.50
2023-04-06T01:57:29.228Z,1.50
2023-04-06T01:59:55.892Z,1.40
2023-04-06T02:02:22.754Z,1.50
2023-04-06T02:04:49.508Z,1.40
2023-04-06T02:07:16.181Z,1.40
2023-04-06T02:09:45.127Z,1.50
2023-04-06T02:12:11.861Z,1.50
2023-04-06T02:14:38.624Z,1.50
2023-04-06T02:17:05.362Z,1.40
2023-04-06T02:19:32.494Z,1.40
2023-04-06T02:22:01.387Z,1.30
2023-04-06T02:24:28.138Z,1.30
2023-04-06T02:26:54.897Z,1.30
2023-04-06T02:29:23.802Z,1.40
2023-04-06T02:31:52.779Z,1.40
2023-04-06T02:34:21.715Z,1.40
2023-04-06T02:36:50.830Z,1.50
2023-04-06T02:39:18.732Z,1.50
2023-04-06T02:41:45.589Z,1.50
2023-04-06T02:44:12.278Z,1.50
2023-04-06T02:46:38.962Z,1.40
2023-04-06T02:49:06.763Z,1.40
2023-04-06T02:51:34.314Z,1.40
2023-04-06T02:54:01.152Z,1.30
2023-04-06T02:56:27.890Z,1.30
2023-04-06T02:58:57.002Z,1.30
2023-04-06T03:01:23.816Z,1.20
2023-04-06T03:03:52.851Z,1.20
2023-04-06T03:06:19.586Z,1.20
2023-04-06T03:08:46.368Z,1.10
2023-04-06T03:11:13.045Z,1.10
2023-04-06T03:13:42.429Z,1.10
2023-04-06T03:16:09.190Z,1.20
2023-04-06T03:18:38.353Z,1.20
2023-04-06T03:21:10.265Z,1.10
2023-04-06T03:23:37.061Z,1.10
2023-04-06T03:26:04.652Z,1.10
2023-04-06T03:28:31.395Z,1.10
2023-04-06T03:30:58.199Z,1.20
2023-04-06T03:33:24.969Z,1.20
2023-04-06T03:35:51.872Z,1.10
2023-04-06T03:38:21.439Z,1.10
2023-04-06T03:40:48.223Z,1.10
2023-04-06T03:43:17.436Z,1.10
2023-04-06T03:45:44.158Z,1.00
2023-04-06T03:48:11.014Z,1.00
2023-04-06T03:50:40.078Z,1.00
2023-04-06T03:53:06.781Z,1.00
2023-04-06T03:55:33.599Z,1.00
2023-04-06T03:58:00.331Z,1.00
2023-04-06T04:00:27.582Z,1.00
2023-04-06T04:02:54.320Z,1.00
2023-04-06T04:05:25.933Z,1.10
2023-04-06T04:07:53.320Z,1.00
2023-04-06T04:10:20.182Z,1.00
2023-04-06T04:12:49.010Z,1.00
2023-04-06T04:15:16.161Z,1.00
2023-04-06T04:17:47.692Z,1.00
2023-04-06T04:20:14.583Z,1.00
2023-04-06T04:22:41.714Z,1.00
2023-04-06T04:25:08.933Z,0.90
2023-04-06T04:27:36.060Z,0.90
2023-04-06T04:30:05.395Z,0.90
2023-04-06T04:32:34.313Z,0.80
2023-04-06T04:35:01.102Z,0.80
2023-04-06T04:37:30.202Z,0.80
2023-04-06T04:39:59.337Z,0.70
2023-04-06T04:42:26.100Z,0.70
2023-04-06T04:44:52.978Z,0.60
2023-04-06T04:47:20.208Z,0.70
2023-04-06T04:49:49.450Z,0.70
2023-04-06T04:52:16.377Z,0.70
2023-04-06T04:54:43.596Z,0.70
2023-04-06T04:57:10.303Z,0.70
2023-04-06T04:59:37.158Z,0.70
2023-04-06T05:02:04.066Z,0.70
2023-04-06T05:04:33.372Z,0.70
2023-04-06T05:07:10.558Z,0.70
2023-04-06T05:09:37.463Z,0.60
2023-04-06T05:12:04.326Z,0.60
2023-04-06T05:14:31.309Z,0.50
2023-04-06T05:17:00.423Z,0.50
2023-04-06T05:19:27.124Z,0.50
2023-04-06T05:21:53.883Z,0.60
2023-04-06T05:24:20.594Z,0.60
2023-04-06T05:26:47.437Z,0.70
2023-04-06T05:29:14.296Z,0.80
2023-04-06T05:31:41.145Z,0.80
2023-04-06T05:34:10.880Z,0.90
2023-04-06T05:36:37.732Z,1.00
2023-04-06T05:39:04.490Z,1.00
2023-04-06T05:41:31.610Z,1.00
2023-04-06T05:44:02.922Z,1.10
2023-04-06T05:46:29.679Z,1.20
2023-04-06T05:48:57.031Z,1.20
2023-04-06T05:51:24.018Z,1.20
2023-04-06T05:53:52.875Z,1.30
2023-04-06T05:56:19.667Z,1.30
2023-04-06T05:58:46.933Z,1.30
2023-04-06T06:01:13.853Z,1.40
2023-04-06T06:03:40.733Z,1.50
2023-04-06T06:06:07.517Z,1.70
2023-04-06T06:08:34.605Z,1.70
2023-04-06T06:11:04.002Z,1.80
2023-04-06T06:13:30.862Z,1.90
2023-04-06T06:15:57.650Z,2.00
2023-04-06T06:18:24.354Z,2.10
2023-04-06T06:20:53.475Z,2.20
2023-04-06T06:23:20.280Z,2.20
2023-04-06T06:25:49.480Z,2.40
2023-04-06T06:28:16.288Z,2.50
2023-04-06T06:30:45.541Z,2.70
2023-04-06T06:33:12.293Z,2.80
2023-04-06T06:35:39.425Z,2.80
2023-04-06T06:38:06.346Z,2.90
2023-04-06T06:40:33.891Z,3.00
2023-04-06T06:43:00.823Z,3.10
2023-04-06T06:45:27.624Z,3.20
2023-04-06T06:47:55.695Z,3.30
2023-04-06T06:50:22.766Z,3.40
2023-04-06T06:52:51.885Z,3.50
2023-04-06T06:55:20.213Z,3.70
2023-04-06T06:57:47.440Z,3.90
2023-04-06T07:00:15.251Z,4.00
2023-04-06T07:02:44.429Z,4.00
2023-04-06T07:05:26.177Z,3.90
2023-04-06T07:07:57.254Z,3.90
2023-04-06T07:10:26.915Z,3.90
2023-04-06T07:12:56.008Z,3.90
2023-04-06T07:15:24.960Z,4.00
2023-04-06T07:17:53.380Z,4.00
2023-04-06T07:20:20.195Z,4.20
2023-04-06T07:22:49.578Z,4.30
2023-04-06T07:25:16.496Z,4.50
2023-04-06T07:27:45.633Z,4.60
2023-04-06T07:30:12.578Z,4.80
2023-04-06T07:32:41.594Z,5.00
2023-04-06T07:35:08.575Z,5.10
2023-04-06T07:37:37.756Z,5.30
2023-04-06T07:40:04.883Z,5.50
2023-04-06T07:42:31.774Z,5.70
2023-04-06T07:45:00.768Z,5.80
2023-04-06T07:47:27.555Z,5.90
2023-04-06T07:49:57.072Z,6.00
2023-04-06T07:52:26.300Z,6.10
2023-04-06T07:54:53.195Z,6.20
2023-04-06T07:57:22.330Z,6.40
2023-04-06T07:59:51.321Z,6.40
2023-04-06T08:02:23.043Z,6.60
2023-04-06T08:04:49.910Z,6.70
2023-04-06T08:07:16.622Z,6.90
2023-04-06T08:09:46.399Z,7.00
2023-04-06T08:12:13.166Z,7.20
2023-04-06T08:14:39.937Z,7.40
2023-04-06T08:17:06.749Z,7.50
2023-04-06T08:19:33.609Z,7.60
2023-04-06T08:22:00.467Z,7.60
2023-04-06T08:24:27.182Z,7.70
2023-04-06T08:26:54.344Z,8.00
2023-04-06T08:29:21.197Z,8.10
2023-04-06T08:31:47.936Z,8.20
2023-04-06T08:34:16.937Z,8.30
2023-04-06T08:36:43.820Z,8.50
2023-04-06T08:39:10.659Z,8.50
2023-04-06T08:41:37.486Z,8.80
2023-04-06T08:44:06.948Z,8.80
2023-04-06T08:46:36.097Z,8.90
2023-04-06T08:49:04.322Z,9.00
2023-04-06T08:51:31.638Z,9.00
2023-04-06T08:54:00.073Z,9.10
2023-04-06T08:56:29.030Z,9.10
2023-04-06T08:58:56.925Z,9.10
2023-04-06T09:01:31.123Z,9.20
2023-04-06T09:04:02.872Z,9.40
2023-04-06T09:06:29.776Z,9.30
2023-04-06T09:08:56.646Z,9.70
2023-04-06T09:11:26.058Z,10.00
2023-04-06T09:13:55.345Z,10.10
2023-04-06T09:16:24.608Z,10.20
2023-04-06T09:18:51.685Z,10.10
2023-04-06T09:21:20.612Z,10.20
2023-04-06T09:24:01.316Z,10.40
2023-04-06T09:26:28.364Z,10.30
2023-04-06T09:28:56.579Z,10.40
2023-04-06T09:31:33.873Z,10.50
2023-04-06T09:34:01.329Z,10.90
2023-04-06T09:36:36.556Z,11.10
2023-04-06T09:39:05.055Z,11.30
2023-04-06T09:41:36.121Z,11.60
2023-04-06T09:44:11.278Z,11.50
2023-04-06T09:46:58.720Z,11.50
2023-04-06T09:49:29.136Z,11.50
2023-04-06T09:52:00.917Z,11.40
2023-04-06T09:54:30.851Z,11.20
2023-04-06T09:57:10.764Z,11.20
2023-04-06T09:59:51.606Z,11.30
2023-04-06T10:02:33.493Z,11.50
2023-04-06T10:05:21.997Z,11.90
2023-04-06T10:08:00.162Z,12.00
2023-04-06T10:10:29.449Z,11.90
2023-04-06T10:12:57.318Z,12.00
2023-04-06T10:15:25.191Z,12.00
2023-04-06T10:17:54.727Z,12.40
2023-04-06T10:20:39.117Z,12.50
2023-04-06T10:23:21.024Z,12.80
2023-04-06T10:26:01.176Z,12.90
2023-04-06T10:28:32.887Z,12.80
2023-04-06T10:31:00.906Z,12.50
2023-04-06T10:33:28.571Z,12.40
2023-04-06T10:35:57.809Z,12.40
2023-04-06T10:38:42.149Z,12.30
2023-04-06T10:41:13.290Z,12.70
2023-04-06T10:43:42.386Z,12.80
2023-04-06T10:46:10.792Z,12.90
2023-04-06T10:48:42.590Z,13.20
2023-04-06T10:51:14.694Z,13.40
2023-04-06T10:53:46.619Z,13.30
2023-04-06T10:56:15.824Z,13.50
2023-04-06T10:58:47.629Z,13.30
2023-04-06T11:01:17.392Z,13.50
2023-04-06T11:03:49.049Z,13.90
2023-04-06T11:06:20.822Z,14.30
2023-04-06T11:08:50.712Z,14.40
2023-04-06T11:11:21.831Z,14.20
2023-04-06T11:13:53.822Z,14.30
2023-04-06T11:16:27.061Z,14.20
2023-04-06T11:18:57.982Z,14.00
2023-04-06T11:21:39.036Z,14.10
2023-04-06T11:24:22.456Z,14.30
2023-04-06T11:26:57.261Z,14.20
2023-04-06T11:29:31.999Z,14.10
2023-04-06T11:32:03.406Z,13.80
2023-04-06T11:34:34.222Z,13.80
2023-04-06T11:37:08.297Z,13.70
2023-04-06T11:39:51.728Z,13.50
2023-04-06T11:42:26.561Z,13.50
2023-04-06T11:44:56.088Z,13.50
2023-04-06T11:47:30.080Z,13.40
2023-04-06T11:49:59.933Z,13.40
2023-04-06T11:52:28.729Z,13.30
2023-04-06T11:54:57.921Z,13.30
2023-04-06T11:57:26.413Z,13.40
2023-04-06T11:59:53.665Z,13.50
2023-04-06T12:02:20.678Z,13.60
2023-04-06T12:04:47.728Z,13.70
2023-04-06T12:07:14.557Z,13.90
2023-04-06T12:09:41.486Z,14.00
2023-04-06T12:12:08.265Z,14.10
2023-04-06T12:14:37.284Z,13.90
2023-04-06T12:17:06.755Z,14.00
2023-04-06T12:19:33.500Z,14.10
2023-04-06T12:22:00.624Z,14.00
2023-04-06T12:24:28.807Z,14.00
2023-04-06T12:27:06.946Z,14.00
2023-04-06T12:29:38.944Z,14.20
2023-04-06T12:32:07.040Z,14.10
2023-04-06T12:34:33.942Z,14.20
2023-04-06T12:37:01.111Z,14.30
2023-04-06T12:39:29.193Z,14.30
2023-04-06T12:41:57.298Z,14.40
2023-04-06T12:44:25.521Z,14.60
2023-04-06T12:46:53.548Z,14.50
2023-04-06T12:49:20.520Z,14.60
2023-04-06T12:51:47.256Z,14.50
2023-04-06T12:54:14.135Z,14.50
2023-04-06T12:56:43.461Z,14.60
2023-04-06T12:59:10.377Z,14.60
2023-04-06T13:01:37.157Z,14.60
2023-04-06T13:04:04.014Z,14.80
2023-04-06T13:06:31.350Z,15.00
2023-04-06T13:08:58.301Z,15.10
2023-04-06T13:11:27.160Z,15.00
2023-04-06T13:13:55.265Z,15.00
2023-04-06T13:16:24.465Z,14.90
2023-04-06T13:18:56.162Z,14.70
2023-04-06T13:21:22.975Z,14.50
2023-04-06T13:23:49.842Z,14.50
2023-04-06T13:26:17.644Z,14.70
2023-04-06T13:28:46.847Z,14.60
2023-04-06T13:31:13.771Z,14.80
2023-04-06T13:33:41.906Z,14.80
2023-04-06T13:36:09.096Z,14.80
2023-04-06T13:38:36.195Z,14.60
2023-04-06T13:41:03.074Z,14.50
2023-04-06T13:43:29.992Z,14.40
2023-04-06T13:45:59.147Z,14.10
2023-04-06T13:48:27.026Z,14.00
2023-04-06T13:50:53.917Z,14.10
2023-04-06T13:53:20.735Z,14.10
2023-04-06T13:55:56.497Z,14.10
2023-04-06T13:58:23.444Z,14.00
2023-04-06T14:00:50.662Z,14.00
2023-04-06T14:03:20.171Z,13.90
2023-04-06T14:05:49.521Z,13.80
2023-04-06T14:08:16.320Z,13.70
2023-04-06T14:10:43.433Z,13.70
2023-04-06T14:13:12.874Z,13.60
2023-04-06T14:15:39.892Z,13.60
2023-04-06T14:18:06.842Z,13.60
2023-04-06T14:20:35.865Z,13.50
2023-04-06T14:23:05.169Z,13.40
2023-04-06T14:25:35.820Z,13.50
2023-04-06T14:28:02.912Z,13.50
2023-04-06T14:30:31.497Z,13.50
2023-04-06T14:32:59.383Z,13.40
2023-04-06T14:35:28.885Z,13.30
2023-04-06T14:37:55.865Z,13.40
2023-04-06T14:40:25.656Z,13.40
2023-04-06T14:42:52.732Z,13.40
2023-04-06T14:45:20.920Z,13.50
2023-04-06T14:47:47.652Z,13.50
2023-04-06T14:50:16.593Z,13.50
2023-04-06T14:52:47.268Z,13.40
2023-04-06T14:55:15.138Z,13.30
2023-04-06T14:57:41.922Z,13.40
2023-04-06T15:00:10.573Z,13.30
2023-04-06T15:02:38.417Z,13.30
2023-04-06T15:05:06.589Z,13.30
2023-04-06T15:07:33.621Z,13.30
2023-04-06T15:10:00.662Z,13.20
2023-04-06T15:12:27.439Z,13.20
2023-04-06T15:14:54.186Z,13.10
2023-04-06T15:17:21.262Z,13.10
2023-04-06T15:19:47.977Z,13.00
2023-04-06T15:22:14.783Z,13.00
2023-04-06T15:24:43.791Z,13.00
2023-04-06T15:27:12.738Z,13.00
2023-04-06T15:29:39.554Z,13.10
2023-04-06T15:32:08.428Z,13.00
2023-04-06T15:34:35.331Z,13.10
2023-04-06T15:37:02.700Z,13.00
2023-04-06T15:39:31.865Z,13.00
2023-04-06T15:41:58.764Z,13.00
2023-04-06T15:44:25.832Z,13.00
2023-04-06T15:46:53.648Z,12.90
2023-04-06T15:49:21.280Z,12.80
2023-04-06T15:51:52.249Z,12.80
2023-04-06T15:54:21.418Z,12.70
2023-04-06T15:56:51.113Z,12.70
2023-04-06T15:59:17.987Z,12.70
2023-04-06T16:01:46.775Z,12.60
2023-04-06T16:04:16.102Z,12.60
2023-04-06T16:06:45.026Z,12.50
2023-04-06T16:09:11.682Z,12.40
2023-04-06T16:11:40.859Z,12.40
2023-04-06T16:14:08.676Z,12.30
2023-04-06T16:16:35.667Z,12.30
2023-04-06T16:19:02.495Z,12.20
2023-04-06T16:21:29.572Z,12.20
2023-04-06T16:23:58.539Z,12.20
2023-04-06T16:26:27.238Z,12.20
2023-04-06T16:28:57.146Z,12.20
2023-04-06T16:31:24.589Z,12.00
2023-04-06T16:33:52.996Z,12.00
2023-04-06T16:36:30.140Z,12.00
2023-04-06T16:39:00.397Z,11.90
2023-04-06T16:41:28.177Z,11.90
2023-04-06T16:43:57.479Z,11.80
2023-04-06T16:46:31.372Z,11.70
2023-04-06T16:49:01.106Z,11.60
2023-04-06T16:51:32.012Z,11.60
2023-04-06T16:53:59.039Z,11.50
2023-04-06T16:56:26.166Z,11.50
2023-04-06T16:58:52.939Z,11.40
2023-04-06T17:01:23.955Z,11.40
2023-04-06T17:03:51.145Z,11.30
2023-04-06T17:06:18.956Z,11.30
2023-04-06T17:08:47.371Z,11.10
2023-04-06T17:11:18.663Z,11.10
2023-04-06T17:13:50.313Z,11.00
2023-04-06T17:16:18.200Z,10.90
2023-04-06T17:18:45.106Z,10.80
2023-04-06T17:21:16.894Z,10.80
2023-04-06T17:23:44.459Z,10.80
2023-04-06T17:26:11.418Z,10.80
2023-04-06T17:28:38.354Z,10.90
2023-04-06T17:31:11.160Z,10.80
2023-04-06T17:33:41.668Z,10.60
2023-04-06T17:36:14.860Z,10.60
2023-04-06T17:38:44.354Z,10.50
2023-04-06T17:41:12.909Z,10.50
2023-04-06T17:43:42.403Z,10.50
2023-04-06T17:46:09.481Z,10.50
2023-04-06T17:48:36.280Z,10.40
2023-04-06T17:51:03.301Z,10.20
2023-04-06T17:53:34.518Z,10.10
2023-04-06T17:56:04.985Z,10.10
2023-04-06T17:58:32.078Z,10.00
2023-04-06T18:01:05.072Z,10.00
2023-04-06T18:03:34.287Z,9.80
2023-04-06T18:06:15.094Z,9.80
2023-04-06T18:08:42.537Z,9.80
2023-04-06T18:11:21.634Z,9.70
2023-04-06T18:13:48.671Z,9.70
2023-04-06T18:16:17.469Z,9.60
2023-04-06T18:18:47.557Z,9.60
2023-04-06T18:21:14.505Z,9.50
2023-04-06T18:23:41.326Z,9.50
2023-04-06T18:26:16.645Z,9.50
2023-04-06T18:28:46.730Z,9.50
2023-04-06T18:31:14.150Z,9.50
2023-04-06T18:33:41.204Z,9.50
2023-04-06T18:36:11.437Z,9.40
2023-04-06T18:38:48.078Z,9.40
2023-04-06T18:41:16.363Z,9.40
2023-04-06T18:43:43.203Z,9.40
2023-04-06T18:46:19.765Z,9.40
2023-04-06T18:48:46.771Z,9.40
2023-04-06T18:51:13.745Z,9.40
2023-04-06T18:53:41.250Z,9.40
2023-04-06T18:56:15.650Z,9.40
2023-04-06T18:58:42.869Z,9.30
2023-04-06T19:01:22.305Z,9.30
2023-04-06T19:03:51.974Z,9.30
2023-04-06T19:06:21.670Z,9.30
2023-04-06T19:08:49.101Z,9.20
2023-04-06T19:11:16.902Z,9.20
2023-04-06T19:13:50.317Z,9.10
2023-04-06T19:16:18.062Z,9.10
2023-04-06T19:18:45.814Z,9.10
2023-04-06T19:21:20.657Z,9.00
2023-04-06T19:23:55.301Z,8.90
2023-04-06T19:26:24.058Z,8.80
2023-04-06T19:28:51.326Z,8.80
2023-04-06T19:31:18.743Z,8.80
2023-04-06T19:33:49.010Z,8.80
2023-04-06T19:36:16.176Z,8.80
2023-04-06T19:38:43.166Z,8.70
2023-04-06T19:41:12.615Z,8.70
2023-04-06T19:43:39.703Z,8.60
2023-04-06T19:46:06.570Z,8.60
2023-04-06T19:48:33.912Z,8.60
2023-04-06T19:51:00.884Z,8.60
2023-04-06T19:53:28.141Z,8.60
2023-04-06T19:55:55.116Z,8.70
2023-04-06T19:58:22.148Z,8.70
2023-04-06T20:00:49.378Z,8.60
2023-04-06T20:03:21.132Z,8.60
2023-04-06T20:05:50.054Z,8.60
2023-04-06T20:08:16.793Z,8.60
2023-04-06T20:10:46.233Z,8.60
2023-04-06T20:13:15.086Z,8.60
2023-04-06T20:15:45.590Z,8.60
2023-04-06T20:18:12.372Z,8.60
2023-04-06T20:20:39.113Z,8.60
2023-04-06T20:23:05.875Z,8.60
2023-04-06T20:25:35.126Z,8.60
2023-04-06T20:28:02.456Z,8.70
2023-04-06T20:30:29.215Z,8.70
2023-04-06T20:32:56.057Z,8.60
2023-04-06T20:35:22.725Z,8.70
2023-04-06T20:37:49.468Z,8.70
2023-04-06T20:40:18.281Z,8.70
2023-04-06T20:42:47.944Z,8.70
2023-04-06T20:45:14.733Z,8.70
2023-04-06T20:47:41.653Z,8.70
2023-04-06T20:50:11.091Z,8.70
2023-04-06T20:52:38.052Z,8.70
2023-04-06T20:55:05.938Z,8.60
2023-04-06T20:57:34.881Z,8.60
2023-04-06T21:00:01.698Z,8.70
2023-04-06T21:02:30.744Z,8.60
2023-04-06T21:04:57.629Z,8.60
2023-04-06T21:07:24.404Z,8.70
2023-04-06T21:09:51.276Z,8.70
2023-04-06T21:12:18.481Z,8.70
2023-04-06T21:14:45.902Z,8.70
2023-04-06T21:17:12.707Z,8.80
2023-04-06T21:19:41.608Z,8.80
2023-04-06T21:22:10.801Z,8.80
2023-04-06T21:24:37.566Z,8.80
2023-04-06T21:27:06.811Z,8.80
2023-04-06T21:29:35.764Z,8.80
2023-04-06T21:32:02.421Z,8.80
2023-04-06T21:34:29.180Z,8.80
2023-04-06T21:36:56.052Z,8.80
2023-04-06T21:39:25.777Z,8.80
2023-04-06T21:41:52.660Z,8.70
2023-04-06T21:44:19.385Z,8.70
2023-04-06T21:46:46.396Z,8.60
2023-04-06T21:49:13.198Z,8.60
2023-04-06T21:51:41.635Z,8.50
2023-04-06T21:54:08.308Z,8.50
2023-04-06T21:56:38.232Z,8.40
2023-04-06T21:59:05.124Z,8.40
2023-04-06T22:01:31.927Z,8.30
2023-04-06T22:04:00.121Z,8.30
2023-04-06T22:06:30.034Z,8.20
2023-04-06T22:08:58.020Z,8.10
2023-04-06T22:11:24.748Z,8.10
2023-04-06T22:13:51.596Z,8.10
2023-04-06T22:16:18.639Z,8.10
2023-04-06T22:18:45.412Z,8.10
2023-04-06T22:21:12.103Z,8.10
2023-04-06T22:23:42.389Z,8.00
2023-04-06T22:26:10.667Z,8.00
2023-04-06T22:28:40.213Z,8.00
2023-04-06T22:31:08.948Z,8.10
2023-04-06T22:33:37.874Z,8.10
2023-04-06T22:36:07.028Z,8.10
2023-04-06T22:38:33.733Z,8.10
2023-04-06T22:41:00.525Z,8.10
2023-04-06T22:43:27.204Z,8.10
2023-04-06T22:45:57.037Z,8.10
2023-04-06T22:48:23.765Z,8.10
2023-04-06T22:50:50.411Z,8.10
2023-04-06T22:53:19.651Z,8.10
2023-04-06T22:55:46.438Z,8.10
2023-04-06T22:58:13.063Z,8.10
2023-04-06T23:00:39.736Z,8.20
2023-04-06T23:03:06.672Z,8.20
2023-04-06T23:05:35.526Z,8.10
2023-04-06T23:08:02.354Z,8.20
2023-04-06T23:10:29.123Z,8.20
2023-04-06T23:12:55.999Z,8.20
2023-04-06T23:15:22.650Z,8.20
2023-04-06T23:17:49.345Z,8.20
2023-04-06T23:20:16.136Z,8.10
2023-04-06T23:22:42.816Z,8.10
2023-04-06T23:25:11.951Z,8.10
2023-04-06T23:27:38.596Z,8.10
2023-04-06T23:30:06.164Z,8.10
2023-04-06T23:32:32.979Z,8.10
2023-04-06T23:34:59.723Z,8.00
2023-04-06T23:37:27.247Z,8.00
2023-04-06T23:39:54.005Z,8.00
2023-04-06T23:42:23.040Z,8.00
2023-04-06T23:44:55.671Z,8.00
2023-04-06T23:47:24.684Z,8.00
2023-04-06T23:49:53.617Z,8.00
2023-04-06T23:52:22.416Z,8.00
2023-04-06T23:54:49.015Z,8.00
2023-04-06T23:57:15.777Z,8.00
2023-04-06T23:59:44.964Z,8.00
